createdAt,value
2022-09-23T00:01:14.329Z,0.98
2022-09-23T00:03:45.428Z,0.90
2022-09-23T00:06:20.724Z,1.10
2022-09-23T00:08:49.712Z,1.10
2022-09-23T00:11:22.084Z,1.05
2022-09-23T00:13:51.155Z,1.10
2022-09-23T00:16:24.838Z,1.08
2022-09-23T00:18:52.456Z,0.90
2022-09-23T00:21:21.263Z,1.20
2022-09-23T00:23:48.559Z,0.95
2022-09-23T00:26:18.719Z,1.00
2022-09-23T00:28:45.996Z,1.10
2022-09-23T00:31:16.175Z,1.30
2022-09-23T00:33:43.030Z,1.20
2022-09-23T00:36:15.617Z,1.10
2022-09-23T00:38:43.594Z,1.20
2022-09-23T00:41:11.839Z,1.15
2022-09-23T00:44:32.741Z,1.13
2022-09-23T00:46:59.527Z,1.08
2022-09-23T00:49:30.384Z,1.15
2022-09-23T00:52:11.133Z,1.20
2022-09-23T00:54:38.250Z,1.13
2022-09-23T00:57:05.712Z,1.27
2022-09-23T00:59:33.316Z,1.10
2022-09-23T01:02:02.019Z,0.98
2022-09-23T01:04:29.720Z,0.90
2022-09-23T01:06:56.767Z,1.10
2022-09-23T01:09:24.872Z,1.23
2022-09-23T01:12:04.177Z,1.20
2022-09-23T01:14:55.514Z,1.05
2022-09-23T01:17:39.455Z,1.30
2022-09-23T01:20:35.703Z,1.17
2022-09-23T01:23:11.510Z,1.10
2022-09-23T01:26:12.009Z,1.17
2022-09-23T01:29:09.278Z,1.10
2022-09-23T01:31:50.770Z,1.20
2022-09-23T01:34:46.728Z,1.17
2022-09-23T01:37:16.953Z,1.20
2022-09-23T01:39:56.133Z,1.20
2022-09-23T01:42:30.984Z,1.17
2022-09-23T01:45:10.911Z,1.02
2022-09-23T01:47:48.194Z,1.33
2022-09-23T01:50:45.268Z,0.90
2022-09-23T01:53:43.214Z,0.90
2022-09-23T01:56:17.035Z,1.10
2022-09-23T01:59:15.345Z,1.10
2022-09-23T02:01:50.900Z,0.95
2022-09-23T02:04:26.760Z,0.90
2022-09-23T02:07:02.823Z,1.02
2022-09-23T02:09:38.130Z,0.80
2022-09-23T02:12:12.606Z,0.90
2022-09-23T02:14:52.496Z,0.90
2022-09-23T02:17:29.170Z,1.10
2022-09-23T02:20:02.136Z,0.90
2022-09-23T02:22:56.469Z,0.90
2022-09-23T02:25:29.253Z,0.70
2022-09-23T02:28:04.794Z,0.80
2022-09-23T02:30:41.456Z,0.98
2022-09-23T02:33:17.792Z,0.82
2022-09-23T02:35:59.219Z,0.95
2022-09-23T02:38:38.423Z,0.90
2022-09-23T02:41:23.079Z,0.80
2022-09-23T02:44:14.033Z,0.88
2022-09-23T02:46:43.251Z,0.82
2022-09-23T02:49:11.737Z,0.80
2022-09-23T02:51:40.409Z,0.80
2022-09-23T02:54:10.774Z,0.60
2022-09-23T02:56:37.539Z,0.80
2022-09-23T02:59:05.007Z,0.80
2022-09-23T03:01:40.690Z,0.77
2022-09-23T03:04:18.107Z,0.55
2022-09-23T03:07:03.413Z,0.90
2022-09-23T03:09:40.175Z,0.98
2022-09-23T03:12:36.121Z,0.77
2022-09-23T03:15:17.236Z,0.90
2022-09-23T03:17:51.080Z,0.90
2022-09-23T03:20:42.693Z,0.90
2022-09-23T03:23:13.473Z,0.90
2022-09-23T03:25:43.151Z,0.80
2022-09-23T03:28:10.820Z,0.85
2022-09-23T03:30:38.934Z,0.80
2022-09-23T03:33:09.132Z,1.15
2022-09-23T03:36:01.736Z,0.95
2022-09-23T03:38:35.142Z,0.90
2022-09-23T03:41:04.236Z,1.10
2022-09-23T03:43:35.276Z,0.95
2022-09-23T03:46:07.242Z,1.10
2022-09-23T03:48:34.186Z,1.00
2022-09-23T03:51:19.670Z,0.90
2022-09-23T03:53:46.411Z,0.93
2022-09-23T03:56:13.151Z,1.10
2022-09-23T03:58:39.968Z,1.02
2022-09-23T04:01:07.368Z,1.00
2022-09-23T04:03:34.137Z,0.98
2022-09-23T04:06:00.899Z,1.00
2022-09-23T04:08:27.643Z,0.88
2022-09-23T04:11:00.017Z,1.00
2022-09-23T04:13:26.908Z,0.95
2022-09-23T04:15:53.642Z,1.02
2022-09-23T04:18:21.182Z,0.93
2022-09-23T04:20:48.319Z,0.80
2022-09-23T04:23:15.394Z,0.98
2022-09-23T04:25:49.066Z,1.00
2022-09-23T04:28:16.074Z,1.00
2022-09-23T04:30:44.359Z,0.93
2022-09-23T04:33:12.259Z,0.98
2022-09-23T04:35:40.607Z,0.70
2022-09-23T04:38:07.697Z,0.98
2022-09-23T04:40:35.999Z,0.80
2022-09-23T04:43:03.218Z,1.00
2022-09-23T04:45:30.515Z,1.10
2022-09-23T04:47:58.448Z,0.95
2022-09-23T04:50:26.411Z,0.80
2022-09-23T04:52:54.182Z,0.80
2022-09-23T04:55:21.955Z,1.00
2022-09-23T04:57:48.723Z,0.95
2022-09-23T05:00:16.032Z,0.90
2022-09-23T05:02:47.732Z,0.80
2022-09-23T05:05:21.145Z,0.90
2022-09-23T05:07:48.931Z,0.90
2022-09-23T05:10:16.586Z,0.82
2022-09-23T05:12:43.582Z,1.00
2022-09-23T05:15:10.382Z,0.90
2022-09-23T05:17:37.432Z,0.73
2022-09-23T05:20:05.308Z,1.08
2022-09-23T05:22:32.233Z,0.70
2022-09-23T05:25:00.342Z,0.80
2022-09-23T05:27:27.235Z,0.88
2022-09-23T05:29:54.114Z,1.10
2022-09-23T05:32:21.376Z,0.82
2022-09-23T05:34:48.165Z,1.13
2022-09-23T05:37:14.923Z,1.08
2022-09-23T05:39:41.693Z,1.10
2022-09-23T05:42:08.576Z,1.00
2022-09-23T05:44:35.408Z,1.20
2022-09-23T05:47:02.716Z,1.13
2022-09-23T05:49:48.271Z,1.30
2022-09-23T05:52:17.200Z,1.17
2022-09-23T05:54:43.971Z,1.38
2022-09-23T05:57:10.816Z,1.48
2022-09-23T05:59:38.187Z,1.38
2022-09-23T06:02:05.142Z,1.00
2022-09-23T06:04:31.939Z,1.10
2022-09-23T06:07:03.108Z,1.20
2022-09-23T06:09:35.529Z,1.10
2022-09-23T06:12:03.620Z,1.08
2022-09-23T06:14:30.655Z,1.20
2022-09-23T06:16:57.416Z,1.20
2022-09-23T06:19:24.274Z,1.70
2022-09-23T06:21:51.054Z,2.35
2022-09-23T06:24:22.066Z,2.60
2022-09-23T06:26:50.793Z,2.60
2022-09-23T06:29:18.396Z,2.15
2022-09-23T06:31:55.167Z,2.33
2022-09-23T06:34:22.078Z,1.90
2022-09-23T06:36:48.923Z,1.95
2022-09-23T06:39:16.033Z,1.80
2022-09-23T06:41:43.943Z,1.77
2022-09-23T06:44:14.507Z,1.40
2022-09-23T06:46:41.453Z,1.20
2022-09-23T06:49:08.413Z,1.42
2022-09-23T06:51:35.220Z,1.60
2022-09-23T06:54:02.099Z,1.40
2022-09-23T06:56:30.728Z,1.20
2022-09-23T06:58:59.230Z,1.38
2022-09-23T07:01:26.182Z,1.10
2022-09-23T07:03:54.167Z,1.40
2022-09-23T07:06:21.109Z,1.30
2022-09-23T07:08:48.289Z,1.60
2022-09-23T07:11:15.682Z,1.50
2022-09-23T07:13:42.690Z,1.20
2022-09-23T07:16:10.977Z,1.50
2022-09-23T07:18:38.215Z,1.05
2022-09-23T07:21:13.159Z,1.20
2022-09-23T07:23:39.978Z,1.20
2022-09-23T07:26:08.002Z,1.20
2022-09-23T07:28:36.027Z,1.50
2022-09-23T07:31:08.141Z,1.40
2022-09-23T07:33:37.060Z,1.20
2022-09-23T07:36:10.111Z,1.48
2022-09-23T07:38:41.536Z,1.50
2022-09-23T07:41:13.706Z,1.50
2022-09-23T07:43:40.842Z,1.52
2022-09-23T07:46:12.525Z,1.50
2022-09-23T07:48:40.088Z,1.60
2022-09-23T07:51:20.650Z,1.67
2022-09-23T07:53:49.125Z,1.90
2022-09-23T07:56:19.000Z,2.20
2022-09-23T07:58:59.826Z,2.30
2022-09-23T08:01:29.460Z,2.20
2022-09-23T08:04:08.877Z,2.20
2022-09-23T08:06:36.781Z,1.73
2022-09-23T08:09:03.737Z,1.58
2022-09-23T08:11:31.277Z,1.50
2022-09-23T08:13:58.124Z,1.40
2022-09-23T08:16:25.063Z,1.48
2022-09-23T08:18:51.916Z,1.40
2022-09-23T08:21:20.576Z,1.23
2022-09-23T08:23:47.703Z,1.60
2022-09-23T08:26:21.235Z,1.50
2022-09-23T08:28:50.461Z,1.65
2022-09-23T08:31:17.500Z,1.55
2022-09-23T08:33:44.455Z,1.60
2022-09-23T08:36:11.490Z,1.52
2022-09-23T08:38:38.252Z,1.65
2022-09-23T08:41:05.010Z,1.98
2022-09-23T08:43:34.657Z,1.60
2022-09-23T08:46:05.585Z,1.70
2022-09-23T08:48:47.291Z,1.38
2022-09-23T08:51:19.840Z,1.83
2022-09-23T08:53:47.603Z,1.60
2022-09-23T08:56:22.804Z,2.20
2022-09-23T08:59:11.324Z,2.05
2022-09-23T09:01:53.645Z,1.60
2022-09-23T09:04:32.558Z,1.67
2022-09-23T09:07:12.387Z,1.63
2022-09-23T09:09:48.782Z,1.73
2022-09-23T09:12:25.092Z,1.67
2022-09-23T09:15:08.585Z,1.80
2022-09-23T09:17:41.291Z,1.40
2022-09-23T09:20:18.816Z,1.90
2022-09-23T09:23:00.494Z,1.75
2022-09-23T09:25:44.796Z,1.80
2022-09-23T09:28:22.219Z,1.80
2022-09-23T09:30:59.927Z,1.70
2022-09-23T09:33:52.354Z,1.75
2022-09-23T09:36:30.891Z,1.50
2022-09-23T09:39:00.868Z,1.73
2022-09-23T09:41:31.514Z,2.00
2022-09-23T09:44:03.448Z,1.55
2022-09-23T09:46:45.125Z,1.75
2022-09-23T09:49:23.296Z,1.55
2022-09-23T09:52:19.421Z,1.70
2022-09-23T09:54:46.303Z,1.60
2022-09-23T09:57:33.520Z,1.85
2022-09-23T10:00:26.397Z,1.90
2022-09-23T10:02:55.618Z,1.75
2022-09-23T10:05:34.122Z,1.70
2022-09-23T10:08:27.169Z,1.90
2022-09-23T10:11:05.024Z,1.75
2022-09-23T10:13:32.027Z,1.70
2022-09-23T10:16:03.793Z,2.10
2022-09-23T10:18:32.018Z,1.98
2022-09-23T10:21:27.705Z,2.08
2022-09-23T10:24:01.548Z,1.60
2022-09-23T10:26:43.951Z,2.10
2022-09-23T10:29:24.289Z,1.60
2022-09-23T10:32:29.079Z,1.40
2022-09-23T10:35:13.922Z,2.30
2022-09-23T10:37:49.453Z,1.60
2022-09-23T10:40:37.346Z,1.27
2022-09-23T10:43:57.755Z,1.40
2022-09-23T10:46:46.180Z,1.42
2022-09-23T10:49:34.344Z,1.60
2022-09-23T10:52:25.277Z,1.20
2022-09-23T10:55:30.675Z,1.45
2022-09-23T10:58:47.711Z,1.42
2022-09-23T11:01:33.294Z,1.40
2022-09-23T11:04:32.113Z,1.58
2022-09-23T11:07:14.206Z,1.70
2022-09-23T11:10:04.297Z,1.45
2022-09-23T11:13:01.057Z,1.38
2022-09-23T11:15:33.633Z,1.50
2022-09-23T11:18:10.167Z,1.50
2022-09-23T11:20:57.899Z,1.27
2022-09-23T11:23:50.469Z,1.52
2022-09-23T11:26:40.764Z,1.67
2022-09-23T11:29:25.345Z,1.60
2022-09-23T11:32:06.930Z,1.40
2022-09-23T11:34:43.039Z,1.40
2022-09-23T11:37:18.606Z,1.55
2022-09-23T11:39:57.318Z,1.38
2022-09-23T11:42:31.744Z,1.58
2022-09-23T11:47:39.816Z,1.40
2022-09-23T11:50:25.905Z,1.58
2022-09-23T11:53:17.065Z,1.75
2022-09-23T11:56:03.516Z,1.50
2022-09-23T12:01:35.133Z,1.80
2022-09-23T12:04:29.865Z,1.57
2022-09-23T12:07:08.210Z,1.60
2022-09-23T12:09:57.172Z,1.52
2022-09-23T12:12:58.398Z,1.70
2022-09-23T12:15:47.075Z,1.50
2022-09-23T12:18:26.012Z,1.73
2022-09-23T12:21:33.060Z,1.52
2022-09-23T12:24:36.452Z,1.60
2022-09-23T12:27:08.713Z,1.58
2022-09-23T12:29:37.435Z,1.70
2022-09-23T12:32:09.946Z,1.33
2022-09-23T12:34:41.291Z,1.40
2022-09-23T12:37:08.075Z,1.30
2022-09-23T12:39:38.651Z,1.23
2022-09-23T12:42:19.243Z,1.40
2022-09-23T12:44:48.573Z,1.42
2022-09-23T12:47:15.321Z,1.42
2022-09-23T12:49:43.637Z,1.73
2022-09-23T12:52:25.069Z,1.83
2022-09-23T12:54:56.317Z,1.42
2022-09-23T12:57:35.249Z,1.30
2022-09-23T13:00:14.243Z,1.50
2022-09-23T13:03:15.995Z,1.60
2022-09-23T13:06:11.707Z,1.58
2022-09-23T13:08:41.659Z,1.70
2022-09-23T13:11:22.600Z,1.63
2022-09-23T13:13:50.939Z,1.50
2022-09-23T13:16:22.643Z,1.63
2022-09-23T13:19:00.102Z,1.85
2022-09-23T13:21:45.882Z,1.60
2022-09-23T13:24:31.177Z,1.50
2022-09-23T13:27:02.034Z,1.30
2022-09-23T13:29:51.807Z,1.40
2022-09-23T13:32:21.259Z,1.67
2022-09-23T13:35:24.569Z,1.50
2022-09-23T13:37:51.333Z,1.35
2022-09-23T13:40:24.733Z,1.83
2022-09-23T13:42:56.917Z,1.50
2022-09-23T13:45:25.827Z,1.52
2022-09-23T13:47:58.877Z,1.67
2022-09-23T13:50:28.721Z,1.48
2022-09-23T13:53:01.072Z,1.77
2022-09-23T13:55:31.946Z,1.73
2022-09-23T13:58:01.710Z,1.60
2022-09-23T14:00:35.546Z,1.83
2022-09-23T14:03:03.973Z,1.60
2022-09-23T14:05:38.131Z,2.15
2022-09-23T14:08:04.958Z,2.20
2022-09-23T14:10:31.866Z,2.00
2022-09-23T14:12:59.370Z,1.60
2022-09-23T14:15:26.649Z,1.40
2022-09-23T14:18:01.035Z,1.45
2022-09-23T14:23:10.968Z,1.05
2022-09-23T14:25:38.993Z,1.40
2022-09-23T14:28:05.938Z,1.27
2022-09-23T14:30:32.921Z,1.40
2022-09-23T14:32:59.916Z,1.33
2022-09-23T14:35:39.851Z,1.40
2022-09-23T14:38:25.346Z,1.50
2022-09-23T14:40:52.111Z,1.40
2022-09-23T14:43:26.069Z,1.40
2022-09-23T14:45:55.962Z,1.50
2022-09-23T14:48:35.082Z,1.27
2022-09-23T14:51:06.017Z,1.30
2022-09-23T14:53:43.307Z,1.23
2022-09-23T14:56:17.687Z,1.13
2022-09-23T15:01:36.074Z,1.10
2022-09-23T15:04:31.298Z,1.20
2022-09-23T15:07:01.079Z,1.10
2022-09-23T15:09:40.800Z,1.20
2022-09-23T15:12:21.021Z,1.13
2022-09-23T15:14:56.860Z,1.15
2022-09-23T15:17:24.236Z,1.38
2022-09-23T15:19:57.430Z,1.20
2022-09-23T15:22:25.732Z,1.20
2022-09-23T15:24:54.842Z,1.25
2022-09-23T15:27:24.838Z,1.00
2022-09-23T15:29:53.073Z,1.40
2022-09-23T15:32:21.792Z,1.40
2022-09-23T15:34:51.365Z,1.30
2022-09-23T15:37:18.431Z,1.25
2022-09-23T15:39:45.971Z,1.13
2022-09-23T15:42:13.588Z,1.23
2022-09-23T15:44:40.398Z,1.10
2022-09-23T15:47:15.529Z,1.05
2022-09-23T15:49:47.038Z,1.27
2022-09-23T15:52:15.903Z,1.20
2022-09-23T15:54:43.765Z,1.20
2022-09-23T15:57:11.169Z,1.20
2022-09-23T15:59:38.148Z,1.40
2022-09-23T16:02:14.824Z,1.40
2022-09-23T16:04:41.559Z,1.20
2022-09-23T16:07:14.358Z,1.40
2022-09-23T16:09:41.104Z,1.35
2022-09-23T16:12:11.765Z,1.30
2022-09-23T16:14:38.732Z,1.40
2022-09-23T16:17:07.612Z,1.23
2022-09-23T16:19:35.421Z,1.10
2022-09-23T16:22:03.788Z,1.27
2022-09-23T16:24:30.959Z,1.30
2022-09-23T16:27:00.005Z,1.30
2022-09-23T16:29:27.579Z,1.27
2022-09-23T16:31:55.630Z,1.15
2022-09-23T16:34:22.603Z,1.20
2022-09-23T16:36:49.341Z,1.30
2022-09-23T16:39:16.088Z,1.15
2022-09-23T16:41:43.715Z,1.13
2022-09-23T16:44:12.463Z,1.25
2022-09-23T16:46:42.749Z,1.08
2022-09-23T16:49:12.075Z,1.33
2022-09-23T16:51:39.821Z,1.30
2022-09-23T16:54:10.156Z,1.23
2022-09-23T16:56:39.259Z,1.00
2022-09-23T16:59:06.635Z,1.20
2022-09-23T17:01:52.231Z,1.42
2022-09-23T17:04:19.587Z,1.30
2022-09-23T17:06:49.948Z,1.42
2022-09-23T17:09:18.767Z,1.27
2022-09-23T17:11:48.447Z,1.13
2022-09-23T17:14:15.997Z,1.10
2022-09-23T17:16:43.486Z,1.23
2022-09-23T17:19:12.077Z,1.20
2022-09-23T17:21:39.332Z,1.33
2022-09-23T17:24:07.020Z,1.23
2022-09-23T17:26:34.089Z,1.50
2022-09-23T17:29:02.042Z,1.40
2022-09-23T17:31:28.958Z,1.40
2022-09-23T17:33:56.248Z,1.40
2022-09-23T17:36:23.058Z,1.35
2022-09-23T17:38:53.545Z,1.58
2022-09-23T17:41:20.917Z,1.92
2022-09-23T17:43:48.022Z,1.83
2022-09-23T17:46:18.184Z,1.67
2022-09-23T17:48:45.912Z,1.80
2022-09-23T17:51:14.074Z,1.50
2022-09-23T17:53:43.480Z,1.25
2022-09-23T17:56:16.081Z,1.42
2022-09-23T17:58:43.864Z,1.73
2022-09-23T18:01:13.341Z,1.40
2022-09-23T18:03:43.537Z,1.40
2022-09-23T18:06:14.673Z,1.52
2022-09-23T18:08:43.678Z,1.63
2022-09-23T18:11:21.283Z,2.42
2022-09-23T18:13:54.065Z,2.25
2022-09-23T18:16:24.563Z,1.98
2022-09-23T18:18:57.046Z,2.03
2022-09-23T18:21:31.121Z,1.80
2022-09-23T18:26:46.710Z,1.75
2022-09-23T18:29:14.098Z,1.70
2022-09-23T18:31:41.171Z,1.65
2022-09-23T18:34:13.664Z,1.95
2022-09-23T18:36:40.563Z,2.00
2022-09-23T18:39:07.680Z,1.70
2022-09-23T18:41:35.511Z,2.05
2022-09-23T18:44:03.333Z,1.85
2022-09-23T18:46:31.115Z,2.05
2022-09-23T18:49:17.778Z,1.80
2022-09-23T18:51:52.556Z,2.08
2022-09-23T18:54:19.936Z,1.90
2022-09-23T18:56:47.484Z,1.60
2022-09-23T18:59:18.290Z,1.77
2022-09-23T19:01:47.036Z,2.28
2022-09-23T19:04:16.961Z,1.70
2022-09-23T19:06:43.736Z,1.80
2022-09-23T19:09:12.093Z,2.20
2022-09-23T19:11:39.391Z,1.65
2022-09-23T19:14:10.989Z,1.90
2022-09-23T19:16:39.578Z,1.70
2022-09-23T19:19:07.129Z,1.88
2022-09-23T19:21:34.622Z,1.90
2022-09-23T19:24:06.964Z,1.95
2022-09-23T19:26:40.541Z,1.80
2022-09-23T19:29:12.488Z,1.73
2022-09-23T19:31:41.119Z,1.70
2022-09-23T19:34:18.906Z,2.17
2022-09-23T19:36:48.110Z,1.98
2022-09-23T19:39:23.530Z,1.60
2022-09-23T19:41:52.243Z,1.88
2022-09-23T19:44:20.140Z,2.13
2022-09-23T19:46:53.386Z,2.00
2022-09-23T19:49:24.587Z,2.00
2022-09-23T19:51:53.343Z,1.80
2022-09-23T19:54:20.860Z,1.90
2022-09-23T19:56:50.161Z,1.75
2022-09-23T19:59:18.988Z,1.98
2022-09-23T20:01:47.479Z,1.80
2022-09-23T20:04:15.723Z,1.88
2022-09-23T20:06:44.061Z,1.90
2022-09-23T20:09:11.132Z,1.90
2022-09-23T20:11:38.038Z,1.98
2022-09-23T20:14:06.443Z,1.92
2022-09-23T20:16:35.503Z,2.00
2022-09-23T20:19:04.373Z,1.92
2022-09-23T20:21:31.429Z,1.90
2022-09-23T20:23:58.678Z,1.75
2022-09-23T20:26:44.221Z,2.10
2022-09-23T20:29:11.303Z,2.13
2022-09-23T20:31:40.319Z,1.85
2022-09-23T20:34:08.308Z,1.73
2022-09-23T20:36:36.271Z,1.88
2022-09-23T20:39:09.203Z,2.08
2022-09-23T20:41:37.884Z,1.88
2022-09-23T20:44:12.652Z,2.00
2022-09-23T20:46:45.278Z,1.80
2022-09-23T20:49:15.309Z,1.80
2022-09-23T20:51:42.039Z,1.88
2022-09-23T20:54:08.925Z,1.98
2022-09-23T20:56:35.725Z,2.17
2022-09-23T20:59:04.594Z,2.22
2022-09-23T21:01:36.522Z,2.13
2022-09-23T21:04:05.650Z,1.98
2022-09-23T21:06:35.620Z,2.40
2022-09-23T21:09:03.307Z,2.08
2022-09-23T21:11:31.133Z,1.90
2022-09-23T21:13:59.126Z,2.15
2022-09-23T21:16:26.027Z,2.40
2022-09-23T21:18:53.179Z,2.15
2022-09-23T21:21:22.154Z,2.40
2022-09-23T21:23:49.997Z,2.28
2022-09-23T21:26:23.105Z,2.30
2022-09-23T21:28:52.152Z,2.25
2022-09-23T21:31:25.391Z,2.13
2022-09-23T21:33:56.880Z,2.60
2022-09-23T21:36:24.707Z,2.58
2022-09-23T21:38:52.462Z,2.10
2022-09-23T21:41:19.657Z,2.08
2022-09-23T21:43:46.550Z,2.00
2022-09-23T21:46:15.412Z,2.08
2022-09-23T21:48:42.952Z,2.42
2022-09-23T21:51:19.217Z,2.20
2022-09-23T21:53:46.531Z,2.17
2022-09-23T21:56:20.249Z,2.45
2022-09-23T21:58:47.927Z,2.50
2022-09-23T22:01:17.906Z,2.10
2022-09-23T22:03:49.256Z,2.10
2022-09-23T22:06:21.474Z,1.95
2022-09-23T22:08:59.857Z,2.25
2022-09-23T22:11:47.593Z,2.20
2022-09-23T22:14:15.971Z,1.90
2022-09-23T22:16:42.957Z,2.10
2022-09-23T22:19:11.006Z,2.13
2022-09-23T22:21:39.273Z,1.90
2022-09-23T22:24:07.806Z,2.22
2022-09-23T22:26:39.957Z,1.80
2022-09-23T22:29:27.412Z,2.00
2022-09-23T22:32:12.979Z,1.77
2022-09-23T22:34:51.675Z,1.92
2022-09-23T22:37:30.244Z,1.92
2022-09-23T22:39:57.105Z,1.60
2022-09-23T22:42:24.215Z,1.73
2022-09-23T22:44:51.533Z,1.70
2022-09-23T22:47:19.524Z,1.83
2022-09-23T22:49:46.855Z,1.67
2022-09-23T22:52:16.022Z,1.63
2022-09-23T22:54:43.302Z,1.60
2022-09-23T22:57:10.358Z,1.80
2022-09-23T22:59:37.590Z,1.50
2022-09-23T23:02:06.575Z,1.42
2022-09-23T23:04:33.859Z,1.60
2022-09-23T23:07:00.703Z,1.73
2022-09-23T23:09:27.568Z,1.60
2022-09-23T23:11:54.378Z,1.80
2022-09-23T23:14:21.262Z,1.85
2022-09-23T23:16:48.236Z,1.65
2022-09-23T23:19:17.247Z,1.83
2022-09-23T23:21:45.425Z,1.50
2022-09-23T23:24:30.748Z,1.55
2022-09-23T23:26:57.977Z,1.48
2022-09-23T23:29:24.763Z,1.67
2022-09-23T23:31:51.602Z,1.55
2022-09-23T23:34:20.285Z,1.95
2022-09-23T23:36:54.414Z,1.88
2022-09-23T23:41:57.735Z,1.40
2022-09-23T23:44:25.987Z,1.60
2022-09-23T23:46:53.890Z,1.42
2022-09-23T23:49:21.556Z,2.00
2022-09-23T23:51:48.755Z,1.92
2022-09-23T23:54:15.813Z,1.83
2022-09-23T23:56:42.980Z,1.60
2022-09-23T23:59:09.844Z,1.52
